Etusivu
METAR-TAF:

METAR-TAF

Lentoasemat :

Toncontínin kansainvälinen lentoasema

Tegucigalpa, Honduras

Leveyspiiri: 14-03N, Pituuspiiri: 087-13W, korkeus merenpinnasta: 994 m

Tämänhetkinen sää

Tämä raportti tehtiin 1 tunti ja 2 minuuttia sitten, kello 18.00 UTC
Tuuli 6 kn koillisesta
Lämpötila 29°C
Kosteus 40%
Ilmanpaine 1019 hPa
Näkyvyys 10 km tai enemmän
Hajanaisia pilviä 3600 ft:n korkeudessa

METAR: MHTG 031800Z 04006KT 9999 SCT036 29/14 Q1019 A3009 NOSIG

Aika: 13:02 (19:02 UTC)

Sääennuste

Tämä raportti tehtiin 3 tuntia ja 2 minuuttia sitten, kello 16.00 UTC
Ennuste voimassa 03. päivästä klo 18 UTC - 04. päivään klo 18 UTC
Tuuli 4 kn eri suunnista
Näkyvyys 10 km tai enemmän
Muutamia pilviä 3200 ft:n korkeudessa

TAF: MHTG 031600Z 0318/0418 VRB04KT 9999 FEW032 TX31/0320Z TN15/0412Z

Säähavainnot ja -ennusteet yli 4000 lentoasemalta (METAR- ja TAF-raportit).

Käytössä olevat sääasemat on merkitty karttaan keltaisilla ja punaisilla pisteillä.

Aseta hiiri pisteen päälle nähdäksesi sääaseman nimen.

Klikkaa sitten nähdäksesi säähavainnot ja -ennusteet.

Kartan vaihtaminen: klikkaa mustalla rastilla varustettuja vihreitä pisteitä, niin voit zoomata sisään; viivalla varustettua vihreää pistettä, niin voit zoomata ulos tai vihreitä nuolia, niin pääset viereisille kartoille.


METAR-TAF: